Time;durP1;ratioP1;P1;durP2;ratioP2;P2;SDS_P1;SDS_P2;PMS_P1;PMS_P2;Temp;Humidity;BMP_temperature;BMP_pressure;BME280_temperature;BME280_humidity;BME280_pressure;Samples;Min_cycle;Max_cycle;Signal;HPM_P1;HPM_P2
2022/03/17 00:02:59;;;;;;;33.65;27.85;;;;;;;8.39;59.31;100494.56;10311276;28;20487;-74
2022/03/17 00:08:01;;;;;;;35.72;27.05;;;;;;;8.37;59.35;100482.50;10296265;28;20149;-75
2022/03/17 00:13:03;;;;;;;31.23;26.10;;;;;;;8.40;59.40;100479.78;10293890;28;20141;-75
2022/03/17 00:18:04;;;;;;;37.08;28.88;;;;;;;8.42;59.14;100483.16;10293357;28;20838;-75
2022/03/17 00:23:06;;;;;;;33.53;27.27;;;;;;;8.36;59.35;100478.22;10292466;28;20205;-74
2022/03/17 00:28:09;;;;;;;49.00;35.45;;;;;;;8.36;58.99;100463.44;10292825;28;20137;-75
2022/03/17 00:33:11;;;;;;;40.70;32.47;;;;;;;8.31;59.16;100461.91;10309816;28;20054;-75
2022/03/17 00:38:16;;;;;;;45.03;33.88;;;;;;;8.28;59.25;100478.50;10310445;28;20141;-75
2022/03/17 00:43:18;;;;;;;41.45;32.45;;;;;;;8.22;59.46;100460.53;10309637;28;20050;-75
2022/03/17 00:48:20;;;;;;;37.90;28.58;;;;;;;8.17;59.69;100466.84;10309065;28;20058;-75
2022/03/17 00:53:22;;;;;;;36.28;28.42;;;;;;;8.15;59.70;100468.66;10308316;28;20668;-74
2022/03/17 00:58:24;;;;;;;35.53;28.25;;;;;;;8.16;59.69;100475.59;10309044;28;20064;-75
2022/03/17 01:03:26;;;;;;;34.40;28.05;;;;;;;8.14;60.01;100485.22;10291275;28;20484;-75
2022/03/17 01:08:28;;;;;;;38.65;28.13;;;;;;;8.12;59.86;100477.44;10308078;28;20050;-75
2022/03/17 01:13:31;;;;;;;36.33;27.45;;;;;;;8.15;59.87;100485.16;10307732;28;20054;-75
2022/03/17 01:18:33;;;;;;;37.50;28.48;;;;;;;8.08;60.14;100488.06;10308113;28;20575;-74
2022/03/17 01:23:36;;;;;;;38.08;31.00;;;;;;;7.86;60.54;100488.91;10307367;28;20153;-74
2022/03/17 01:28:39;;;;;;;36.40;29.20;;;;;;;7.79;60.73;100487.44;10308680;28;20051;-74
2022/03/17 01:33:43;;;;;;;34.42;27.38;;;;;;;7.83;60.82;100494.22;10307982;28;20401;-74
2022/03/17 01:38:45;;;;;;;36.53;29.20;;;;;;;7.80;61.01;100491.75;10290648;28;20496;-74
2022/03/17 01:43:48;;;;;;;37.05;28.77;;;;;;;7.78;60.77;100495.31;10307608;28;20588;-75
2022/03/17 01:48:49;;;;;;;39.58;29.35;;;;;;;7.64;61.25;100482.84;10306053;28;20133;-74
2022/03/17 01:53:52;;;;;;;36.90;29.42;;;;;;;7.72;61.27;100500.75;10307567;28;20145;-74
2022/03/17 01:58:53;;;;;;;36.22;27.80;;;;;;;7.62;61.47;100500.28;10306545;28;20060;-75
2022/03/17 02:03:56;;;;;;;36.20;28.13;;;;;;;7.53;61.83;100500.63;10304755;28;21109;-74
2022/03/17 02:08:58;;;;;;;35.13;27.50;;;;;;;7.50;62.00;100490.34;10306101;28;20161;-74
2022/03/17 02:14:00;;;;;;;39.22;29.02;;;;;;;7.57;61.89;100491.78;10306179;28;20145;-75
2022/03/17 02:19:01;;;;;;;37.28;28.98;;;;;;;7.60;61.85;100490.81;10305493;28;20112;-74
2022/03/17 02:29:24;;;;;;;40.65;31.92;;;;;;;7.47;61.96;100487.84;10305829;28;20046;-74
2022/03/17 02:34:25;;;;;;;41.05;31.55;;;;;;;7.37;62.29;100468.28;10305788;28;20160;-74
2022/03/17 02:39:27;;;;;;;37.47;30.85;;;;;;;7.29;62.27;100453.88;10305818;28;20161;-75
2022/03/17 02:44:29;;;;;;;37.38;30.50;;;;;;;7.22;62.61;100460.22;10304091;28;21146;-74
2022/03/17 02:49:31;;;;;;;34.80;27.42;;;;;;;7.29;62.60;100474.69;10305172;28;20061;-74
2022/03/17 02:54:32;;;;;;;36.58;28.98;;;;;;;7.36;62.43;100479.63;10305685;28;20144;-74
2022/03/17 02:59:34;;;;;;;36.47;30.20;;;;;;;7.46;62.16;100486.16;10288303;28;20177;-75
2022/03/17 03:05:27;;;;;;;39.00;29.40;;;;;;;7.34;62.29;100477.97;10311420;28;20142;-74
2022/03/17 03:10:30;;;;;;;39.67;31.48;;;;;;;7.43;62.04;100486.25;10311831;28;20050;-74
2022/03/17 03:15:33;;;;;;;37.90;31.08;;;;;;;7.42;62.21;100481.97;10294373;28;20046;-74
2022/03/17 03:20:36;;;;;;;38.47;30.58;;;;;;;7.45;62.16;100489.66;10311758;28;20420;-74
2022/03/17 03:25:39;;;;;;;42.08;32.90;;;;;;;7.44;62.22;100497.53;10294659;28;20592;-75
2022/03/17 03:30:41;;;;;;;39.58;31.08;;;;;;;7.36;62.42;100492.63;10312700;28;20046;-74
2022/03/17 03:41:03;;;;;;;36.88;29.65;;;;;;;7.26;62.61;100508.63;10318759;28;20496;-74
2022/03/17 03:46:05;;;;;;;37.83;31.15;;;;;;;7.34;62.50;100522.19;10318900;28;20142;-76
2022/03/17 03:51:07;;;;;;;43.25;33.40;;;;;;;7.44;62.26;100532.22;10318935;28;20144;-76
2022/03/17 03:56:09;;;;;;;40.58;31.40;;;;;;;7.39;62.27;100533.28;10319510;28;20475;-74
2022/03/17 04:01:10;;;;;;;43.05;30.65;;;;;;;7.28;62.69;100530.22;10319039;28;20078;-74
2022/03/17 04:06:14;;;;;;;39.38;31.55;;;;;;;7.18;62.74;100522.75;10296021;28;20504;-74
2022/03/17 04:11:16;;;;;;;39.53;31.02;;;;;;;7.24;62.72;100539.06;10311598;28;20543;-73
2022/03/17 04:16:18;;;;;;;41.13;31.58;;;;;;;7.20;62.83;100544.34;10313232;28;20502;-74
2022/03/17 04:21:20;;;;;;;42.55;32.35;;;;;;;7.17;62.83;100552.28;10294744;28;20050;-74
2022/03/17 04:26:21;;;;;;;38.42;30.85;;;;;;;7.19;62.95;100552.22;10311069;28;20701;-74
2022/03/17 04:31:23;;;;;;;40.97;32.95;;;;;;;7.29;62.54;100558.78;10310851;28;20051;-74
2022/03/17 04:36:25;;;;;;;40.28;32.17;;;;;;;7.35;62.61;100563.75;10311566;28;20054;-74
2022/03/17 04:41:27;;;;;;;39.95;31.83;;;;;;;7.23;62.99;100563.34;10310678;28;20133;-74
2022/03/17 04:46:28;;;;;;;40.13;33.28;;;;;;;7.31;62.83;100566.53;10309547;28;20137;-74
2022/03/17 04:51:31;;;;;;;39.53;32.53;;;;;;;7.33;62.73;100573.38;10292699;28;20038;-74
2022/03/17 04:56:33;;;;;;;40.33;31.63;;;;;;;7.12;63.07;100574.16;10309876;28;20058;-74
2022/03/17 05:01:34;;;;;;;39.83;30.08;;;;;;;7.01;63.37;100589.28;10309658;28;20623;-75
2022/03/17 05:06:36;;;;;;;38.15;30.83;;;;;;;7.06;63.49;100592.59;10310144;28;20054;-74
2022/03/17 05:11:39;;;;;;;39.47;31.67;;;;;;;7.11;63.41;100601.06;10310072;28;20153;-74
2022/03/17 05:16:41;;;;;;;40.20;31.70;;;;;;;7.10;63.18;100605.41;10308859;28;21107;-74
2022/03/17 05:21:44;;;;;;;42.17;34.13;;;;;;;7.08;63.25;100616.78;10309722;28;20081;-73
2022/03/17 05:26:46;;;;;;;40.00;31.60;;;;;;;6.99;63.27;100617.94;10291451;28;20137;-74
2022/03/17 05:31:48;;;;;;;39.17;30.58;;;;;;;6.97;63.41;100627.56;10290839;28;20158;-74
2022/03/17 05:36:50;;;;;;;42.03;32.45;;;;;;;6.93;63.48;100643.31;10291553;28;20511;-75
2022/03/17 05:41:52;;;;;;;44.28;32.88;;;;;;;6.93;63.59;100643.31;10289566;28;20050;-75
2022/03/17 05:46:54;;;;;;;43.65;32.33;;;;;;;6.92;63.66;100647.66;10306494;28;20161;-76
2022/03/17 05:51:56;;;;;;;43.83;33.38;;;;;;;7.00;63.48;100650.00;10307324;28;20165;-76
2022/03/17 05:56:58;;;;;;;41.92;33.22;;;;;;;7.00;63.39;100663.00;10308118;28;20460;-76
2022/03/17 06:01:59;;;;;;;40.30;31.83;;;;;;;6.92;63.76;100668.47;10307935;28;20141;-76
2022/03/17 06:07:17;;;;;;;41.30;31.38;;;;;;;6.82;63.95;100671.41;10307423;28;20061;-76
2022/03/17 06:12:19;;;;;;;35.38;28.42;;;;;;;6.91;63.77;100684.13;10307861;28;20434;-76
2022/03/17 06:17:20;;;;;;;36.58;29.88;;;;;;;7.02;63.74;100700.22;10289640;28;20144;-76
2022/03/17 06:22:22;;;;;;;35.60;29.30;;;;;;;7.02;63.73;100708.03;10307046;28;20109;-76
2022/03/17 06:27:25;;;;;;;35.53;28.88;;;;;;;7.15;63.62;100709.31;10306102;28;20141;-76
2022/03/17 06:32:27;;;;;;;38.70;30.10;;;;;;;7.20;63.56;100721.25;10306787;28;20050;-73
2022/03/17 06:37:28;;;;;;;34.35;28.25;;;;;;;7.26;63.59;100720.22;10306193;28;20140;-74
2022/03/17 06:42:30;;;;;;;37.22;29.25;;;;;;;7.34;63.46;100726.00;10304596;28;20050;-74
2022/03/17 06:47:32;;;;;;;38.83;29.73;;;;;;;7.39;63.32;100739.69;10305296;28;20120;-74
2022/03/17 06:52:34;;;;;;;40.85;30.05;;;;;;;7.49;63.29;100748.88;10286605;28;20145;-74
2022/03/17 06:58:02;;;;;;;37.75;28.98;;;;;;;7.59;63.08;100750.28;10305535;28;20086;-74
2022/03/17 07:03:54;;;;;;;35.72;28.90;;;;;;;7.56;63.19;100760.81;10248225;28;20129;-74
2022/03/17 07:08:56;;;;;;;33.78;26.02;;;;;;;7.67;63.15;100756.06;10270676;28;20143;-74
2022/03/17 07:13:58;;;;;;;36.00;27.70;;;;;;;7.77;62.71;100757.44;10255612;28;20082;-74
2022/03/17 07:18:59;;;;;;;33.60;27.02;;;;;;;7.92;62.60;100764.72;10272468;28;20532;-74
2022/03/17 07:24:01;;;;;;;33.88;25.45;;;;;;;7.98;62.36;100769.72;10272414;28;20054;-74
2022/03/17 07:29:03;;;;;;;32.53;26.58;;;;;;;7.98;62.53;100774.91;10272154;28;20074;-75
2022/03/17 07:34:05;;;;;;;33.15;26.92;;;;;;;8.09;62.51;100786.72;10254737;28;20478;-75
2022/03/17 07:39:07;;;;;;;32.67;26.25;;;;;;;8.04;62.68;100800.75;10272252;28;20174;-76
2022/03/17 07:44:09;;;;;;;33.10;26.50;;;;;;;7.89;62.92;100806.53;10254381;28;20121;-75
2022/03/17 07:49:11;;;;;;;40.53;26.48;;;;;;;7.79;63.16;100815.53;10271563;28;21010;-75
2022/03/17 07:54:12;;;;;;;34.08;27.48;;;;;;;7.92;63.00;100814.22;10272082;28;20520;-76
2022/03/17 07:59:16;;;;;;;33.47;27.40;;;;;;;7.97;63.00;100822.72;10281003;28;20112;-75
2022/03/17 08:04:18;;;;;;;32.17;27.80;;;;;;;8.07;62.85;100827.59;10309671;28;20050;-75
2022/03/17 08:09:20;;;;;;;34.88;27.75;;;;;;;8.22;62.71;100834.91;10310991;28;20477;-74
2022/03/17 08:14:22;;;;;;;36.83;29.05;;;;;;;8.34;62.55;100844.91;10309085;28;20137;-74
2022/03/17 08:19:24;;;;;;;42.42;27.20;;;;;;;8.36;62.68;100859.59;10306913;28;20050;-74
2022/03/17 08:24:26;;;;;;;39.20;28.90;;;;;;;8.46;62.51;100863.56;10308523;28;20827;-74
2022/03/17 08:29:29;;;;;;;32.22;26.42;;;;;;;8.47;62.67;100867.00;10289613;28;20442;-74
2022/03/17 08:34:32;;;;;;;34.83;27.52;;;;;;;8.39;62.91;100879.44;10308563;28;20512;-74
2022/03/17 08:39:34;;;;;;;33.53;27.65;;;;;;;8.41;62.75;100893.28;10308979;28;20580;-74
2022/03/17 08:44:36;;;;;;;36.70;27.38;;;;;;;8.41;62.89;100899.34;10309544;28;20160;-74
2022/03/17 08:49:37;;;;;;;35.75;28.00;;;;;;;8.46;62.80;100902.66;10309379;28;20058;-74
2022/03/17 08:54:41;;;;;;;36.85;29.88;;;;;;;8.57;62.61;100920.50;10291259;28;20081;-74
2022/03/17 08:59:43;;;;;;;36.45;29.98;;;;;;;8.73;62.54;100919.91;10305471;28;20138;-74
2022/03/17 09:04:45;;;;;;;35.90;28.42;;;;;;;8.83;62.60;100938.69;10277690;28;20148;-74
2022/03/17 09:09:47;;;;;;;38.28;31.58;;;;;;;8.78;62.36;100946.69;10288501;28;20054;-74
2022/03/17 09:14:48;;;;;;;36.72;29.60;;;;;;;8.83;62.39;100944.72;10274272;28;20141;-74
2022/03/17 09:19:50;;;;;;;47.25;35.75;;;;;;;8.76;62.63;100963.28;10271484;28;20350;-74
2022/03/17 09:24:52;;;;;;;51.88;41.75;;;;;;;8.70;63.15;100968.72;10272115;28;20061;-74
2022/03/17 09:29:54;;;;;;;60.63;45.33;;;;;;;8.74;63.36;100967.69;10285098;28;20133;-74
2022/03/17 09:34:57;;;;;;;55.58;43.13;;;;;;;8.88;63.20;100978.47;10289173;28;20539;-75
2022/03/17 09:39:58;;;;;;;57.55;43.15;;;;;;;8.92;63.56;100990.50;10280391;28;20137;-75
2022/03/17 09:45:01;;;;;;;49.65;39.08;;;;;;;8.94;63.88;101003.50;10285842;28;20061;-74
2022/03/17 09:50:04;;;;;;;48.55;36.22;;;;;;;8.89;64.07;101000.22;10279423;28;20077;-75
2022/03/17 09:55:10;;;;;;;46.78;34.42;;;;;;;8.66;64.82;101014.06;10285260;28;20486;-74
2022/03/17 10:00:13;;;;;;;58.45;36.72;;;;;;;8.58;64.46;101031.72;10295246;28;20125;-77
2022/03/17 10:05:15;;;;;;;48.03;30.77;;;;;;;8.59;63.65;101033.41;10306927;28;20061;-76
2022/03/17 10:10:17;;;;;;;47.72;30.35;;;;;;;8.73;63.31;101046.84;10306450;28;20140;-76
2022/03/17 10:15:19;;;;;;;33.58;24.15;;;;;;;8.80;62.49;101058.78;10306719;28;20346;-76
2022/03/17 10:20:24;;;;;;;33.05;22.13;;;;;;;8.95;61.78;101055.63;10306063;28;20053;-77
2022/03/17 10:25:28;;;;;;;29.77;21.38;;;;;;;9.05;61.13;101072.69;10305784;28;20137;-77
2022/03/17 10:30:35;;;;;;;30.45;22.95;;;;;;;9.17;61.21;101080.06;10307201;28;20141;-77
2022/03/17 10:35:38;;;;;;;26.88;21.95;;;;;;;9.02;60.96;101082.34;10307402;28;20136;-77
2022/03/17 10:40:41;;;;;;;25.90;21.15;;;;;;;9.00;61.20;101092.84;10306397;28;20050;-77
2022/03/17 10:45:44;;;;;;;26.13;20.20;;;;;;;8.89;61.27;101097.59;10307458;28;20074;-76
2022/03/17 10:50:45;;;;;;;24.42;20.08;;;;;;;8.88;61.39;101105.44;10288876;28;21159;-76
2022/03/17 10:55:49;;;;;;;24.13;18.55;;;;;;;8.67;61.79;101120.91;10306107;28;20137;-76
2022/03/17 11:00:56;;;;;;;21.50;17.13;;;;;;;8.43;61.58;101131.28;10302989;28;20141;-77
2022/03/17 11:05:59;;;;;;;22.42;15.15;;;;;;;8.52;61.68;101141.44;10300528;28;20082;-77
2022/03/17 11:11:00;;;;;;;19.95;14.45;;;;;;;8.51;61.11;101148.41;10295307;28;20144;-77
2022/03/17 11:16:08;;;;;;;18.23;13.82;;;;;;;8.74;60.78;101152.88;10312565;28;20504;-77
2022/03/17 11:21:16;;;;;;;19.02;13.65;;;;;;;9.00;60.01;101150.25;10305140;28;20133;-78
2022/03/17 11:26:22;;;;;;;16.85;12.55;;;;;;;9.02;59.30;101158.00;10313874;28;20118;-78
2022/03/17 11:31:27;;;;;;;18.85;12.40;;;;;;;9.00;59.71;101165.91;10300906;28;20201;-78
2022/03/17 11:36:31;;;;;;;17.33;11.73;;;;;;;9.23;58.87;101163.38;10303175;28;20132;-78
2022/03/17 11:41:40;;;;;;;17.50;10.98;;;;;;;8.91;58.88;101175.81;10304421;28;20065;-77
2022/03/17 11:46:45;;;;;;;15.27;10.85;;;;;;;9.17;58.72;101181.84;10286337;28;20114;-78
2022/03/17 11:51:55;;;;;;;18.17;11.20;;;;;;;9.21;58.87;101188.66;10287172;28;20046;-78
2022/03/17 11:57:00;;;;;;;13.43;10.20;;;;;;;9.23;57.94;101189.47;10294232;28;20152;-78
2022/03/17 12:02:28;;;;;;;13.82;10.40;;;;;;;9.52;57.07;101194.50;10311461;28;20069;-78
2022/03/17 12:07:45;;;;;;;15.32;9.07;;;;;;;9.46;56.43;101199.94;10293224;28;20105;-77
2022/03/17 12:12:48;;;;;;;11.30;6.68;;;;;;;9.45;55.88;101200.88;10293419;28;20050;-77
2022/03/17 12:18:20;;;;;;;8.13;6.20;;;;;;;9.52;55.85;101204.97;10306230;28;20936;-78
2022/03/17 12:23:49;;;;;;;10.52;5.50;;;;;;;9.30;56.03;101204.00;10308733;28;20514;-77
2022/03/17 12:28:51;;;;;;;7.18;4.70;;;;;;;9.42;56.00;101221.03;10293032;28;20146;-78
2022/03/17 12:33:54;;;;;;;10.80;4.50;;;;;;;9.38;55.91;101217.66;10310816;28;20121;-78
2022/03/17 12:38:58;;;;;;;7.05;4.13;;;;;;;9.65;54.73;101221.06;10309358;28;20050;-78
2022/03/17 12:44:01;;;;;;;9.60;5.05;;;;;;;9.76;54.72;101220.72;10292417;28;20048;-77
2022/03/17 12:49:07;;;;;;;9.18;5.00;;;;;;;9.85;54.13;101226.44;10306267;28;20133;-78
2022/03/17 12:54:14;;;;;;;6.57;4.53;;;;;;;10.19;53.60;101231.31;10310141;28;20563;-77
2022/03/17 12:59:16;;;;;;;9.45;5.70;;;;;;;10.10;53.59;101223.78;10290448;28;20153;-78
2022/03/17 13:04:20;;;;;;;14.57;7.32;;;;;;;10.09;53.64;101237.78;10309167;28;20082;-77
2022/03/17 13:09:32;;;;;;;13.68;8.27;;;;;;;9.85;53.64;101233.47;10308883;28;20411;-77
2022/03/17 13:14:34;;;;;;;14.70;8.68;;;;;;;9.91;53.98;101241.06;10309806;28;20612;-78
2022/03/17 13:19:46;;;;;;;13.05;8.95;;;;;;;9.87;53.03;101236.88;10309233;28;20140;-78
2022/03/17 13:25:12;;;;;;;15.52;10.32;;;;;;;9.66;53.14;101235.88;10307103;28;20073;-78
2022/03/17 13:30:17;;;;;;;14.32;9.88;;;;;;;9.80;53.61;101243.22;10291884;28;20761;-78
2022/03/17 13:35:19;;;;;;;14.43;10.75;;;;;;;9.74;53.28;101259.09;10308364;28;20058;-77
2022/03/17 13:40:21;;;;;;;18.67;11.40;;;;;;;9.81;53.51;101250.97;10306382;28;20048;-78
2022/03/17 13:45:39;;;;;;;15.38;10.57;;;;;;;9.88;52.08;101257.72;10305892;28;20082;-77
2022/03/17 13:51:00;;;;;;;14.65;10.32;;;;;;;9.85;52.07;101256.97;10288100;28;20514;-78
2022/03/17 13:56:03;;;;;;;15.33;9.57;;;;;;;9.75;52.73;101250.38;10288405;28;20138;-78
2022/03/17 14:01:17;;;;;;;13.70;9.98;;;;;;;9.58;52.94;101254.38;10306930;28;20473;-78
2022/03/17 14:06:20;;;;;;;18.60;10.80;;;;;;;9.73;53.18;101266.06;10306792;28;20141;-77
2022/03/17 14:11:29;;;;;;;15.70;10.40;;;;;;;9.76;52.82;101257.28;10302305;28;20046;-78
2022/03/17 14:16:34;;;;;;;19.23;10.75;;;;;;;9.86;52.27;101274.34;10302114;28;20088;-77
2022/03/17 14:24:10;;;;;;;17.25;10.85;;;;;;;9.94;52.56;101278.38;10281663;28;20038;-77
2022/03/17 14:27:02;;;;;;;14.25;10.38;;;;;;;9.98;52.09;101285.22;10306013;28;20054;-77
2022/03/17 14:32:05;;;;;;;17.77;10.43;;;;;;;9.90;52.09;101291.63;10286277;28;20050;-77
2022/03/17 14:37:07;;;;;;;15.75;10.38;;;;;;;9.77;51.93;101298.19;10304698;28;20125;-78
2022/03/17 14:42:12;;;;;;;14.18;10.27;;;;;;;10.01;51.37;101297.31;10305713;28;20081;-77
2022/03/17 14:47:15;;;;;;;15.00;9.23;;;;;;;10.09;51.22;101298.75;10304600;28;20081;-77
2022/03/17 14:52:17;;;;;;;16.60;9.32;;;;;;;10.28;50.97;101296.31;10303699;28;20394;-77
2022/03/17 14:57:20;;;;;;;13.75;8.80;;;;;;;10.34;50.64;101309.16;10289104;28;20381;-77
2022/03/17 15:02:24;;;;;;;13.10;8.60;;;;;;;10.36;50.13;101310.81;10304334;28;20093;-77
2022/03/17 15:07:29;;;;;;;13.68;9.05;;;;;;;10.49;49.97;101316.44;10304501;28;20069;-77
2022/03/17 15:12:31;;;;;;;12.65;8.07;;;;;;;10.46;49.78;101319.19;10304829;28;21068;-76
2022/03/17 15:17:34;;;;;;;16.70;8.88;;;;;;;10.11;49.62;101330.06;10297066;28;20061;-76
2022/03/17 15:22:36;;;;;;;13.95;8.32;;;;;;;10.15;50.26;101339.50;10302037;28;20081;-77
2022/03/17 15:32:58;;;;;;;13.43;7.47;;;;;;;10.39;50.08;101347.31;10305001;28;20054;-76
2022/03/17 15:38:03;;;;;;;10.82;6.25;;;;;;;10.43;49.32;101353.28;10310964;28;20137;-77
2022/03/17 15:43:06;;;;;;;12.25;6.05;;;;;;;10.40;48.95;101359.47;10293033;28;20046;-78
2022/03/17 15:48:09;;;;;;;14.65;6.07;;;;;;;10.34;49.16;101375.38;10301106;28;20054;-77
2022/03/17 15:53:11;;;;;;;11.25;6.30;;;;;;;10.29;49.30;101374.72;10311388;28;20057;-77
2022/03/17 15:58:13;;;;;;;9.93;5.82;;;;;;;10.27;49.15;101387.00;10310663;28;20076;-78
2022/03/17 16:03:15;;;;;;;16.95;6.32;;;;;;;10.14;49.63;101393.53;10293587;28;20715;-77
2022/03/17 16:08:18;;;;;;;11.30;6.38;;;;;;;10.07;49.44;101391.19;10311707;28;20136;-77
2022/03/17 16:18:42;;;;;;;13.00;6.55;;;;;;;9.75;50.13;101407.94;10311571;28;20499;-78
2022/03/17 16:23:45;;;;;;;19.55;6.95;;;;;;;9.85;49.76;101416.38;10293566;28;20042;-78
2022/03/17 16:28:47;;;;;;;14.80;6.68;;;;;;;9.68;49.69;101426.50;10311168;28;20149;-78
2022/03/17 16:33:52;;;;;;;11.32;6.40;;;;;;;9.60;49.96;101434.56;10310335;28;20086;-77
2022/03/17 16:38:58;;;;;;;15.93;6.50;;;;;;;9.54;50.03;101438.19;10309709;28;20690;-78
2022/03/17 16:44:00;;;;;;;11.38;5.55;;;;;;;9.43;50.21;101442.06;10310171;28;20054;-77
2022/03/17 16:49:02;;;;;;;10.85;5.63;;;;;;;9.38;50.27;101444.81;10310857;28;20137;-77
2022/03/17 16:54:04;;;;;;;10.50;5.60;;;;;;;9.15;50.48;101447.28;10308026;28;20082;-78
2022/03/17 16:59:06;;;;;;;11.63;4.97;;;;;;;9.01;50.50;101454.66;10308615;28;21189;-78
2022/03/17 17:04:08;;;;;;;11.25;4.97;;;;;;;8.88;50.91;101468.09;10306261;28;20141;-76
2022/03/17 17:09:11;;;;;;;9.45;4.22;;;;;;;8.74;50.92;101473.69;10301751;28;20050;-76
2022/03/17 17:14:13;;;;;;;11.38;5.30;;;;;;;8.71;51.27;101482.44;10303554;28;20050;-76
2022/03/17 17:19:18;;;;;;;10.70;4.35;;;;;;;8.72;51.15;101488.53;10304608;28;20218;-77
2022/03/17 17:35:03;;;;;;;9.83;4.60;;;;;;;8.33;52.46;101510.44;10305691;28;20046;-76
2022/03/17 17:40:06;;;;;;;8.48;3.65;;;;;;;8.27;51.39;101527.09;10304614;28;20564;-76
2022/03/17 17:45:09;;;;;;;11.57;3.97;;;;;;;8.11;51.07;101530.13;10306567;28;20253;-76
2022/03/17 17:50:13;;;;;;;8.20;3.40;;;;;;;8.01;50.89;101535.53;10306301;28;20620;-76
2022/03/17 17:55:15;;;;;;;13.93;3.85;;;;;;;7.94;51.16;101540.91;10289431;28;20085;-77
2022/03/17 18:00:16;;;;;;;11.40;4.18;;;;;;;7.79;51.53;101549.09;10306558;28;20150;-76
2022/03/17 18:05:18;;;;;;;10.30;4.00;;;;;;;7.72;51.63;101550.09;10302893;28;20058;-76
2022/03/17 18:10:22;;;;;;;11.45;4.13;;;;;;;7.63;51.75;101571.97;10284811;28;20437;-76
2022/03/17 18:15:28;;;;;;;8.93;3.63;;;;;;;7.63;51.72;101571.97;10287104;28;20156;-76
2022/03/17 18:20:35;;;;;;;10.65;4.32;;;;;;;7.75;52.60;101582.13;10305030;28;20105;-77
2022/03/17 18:25:37;;;;;;;11.93;4.20;;;;;;;7.62;51.93;101588.50;10303160;28;20172;-77
2022/03/17 18:30:39;;;;;;;12.75;4.10;;;;;;;7.48;52.30;101587.94;10303379;28;20164;-74
2022/03/17 18:35:41;;;;;;;10.23;4.28;;;;;;;7.44;52.49;101594.09;10281542;28;20064;-74
2022/03/17 18:40:44;;;;;;;10.55;4.05;;;;;;;7.28;52.89;101608.31;10283363;28;20201;-74
2022/03/17 18:45:46;;;;;;;11.27;4.40;;;;;;;7.26;53.17;101614.44;10298980;28;20051;-74
2022/03/17 18:50:48;;;;;;;8.65;4.30;;;;;;;7.22;53.35;101617.97;10301140;28;20681;-74
2022/03/17 18:55:51;;;;;;;15.38;4.43;;;;;;;7.19;53.24;101634.50;10304243;28;20077;-74
2022/03/17 19:00:53;;;;;;;11.48;4.50;;;;;;;7.14;53.57;101631.16;10303892;28;20058;-75
2022/03/17 19:05:55;;;;;;;12.98;4.75;;;;;;;7.14;53.45;101636.34;10297471;28;20623;-75
2022/03/17 19:10:58;;;;;;;11.93;4.50;;;;;;;7.06;53.91;101648.66;10315592;28;20129;-75
2022/03/17 19:16:00;;;;;;;13.30;5.00;;;;;;;7.02;54.27;101657.38;10316310;28;20097;-75
2022/03/17 19:21:02;;;;;;;12.05;4.35;;;;;;;7.00;54.61;101664.34;10319079;28;20142;-75
2022/03/17 19:26:06;;;;;;;12.02;5.07;;;;;;;6.95;55.11;101679.19;10316575;28;20058;-75
2022/03/17 19:31:08;;;;;;;14.85;6.10;;;;;;;6.85;54.87;101688.88;10311396;28;20065;-75
2022/03/17 19:36:11;;;;;;;12.00;5.60;;;;;;;6.71;55.42;101703.84;10310993;28;20054;-75
2022/03/17 19:41:17;;;;;;;13.82;5.90;;;;;;;6.69;55.38;101709.97;10316187;28;20129;-75
2022/03/17 19:46:20;;;;;;;14.70;4.72;;;;;;;6.63;55.26;101723.06;10316120;28;20050;-75
2022/03/17 19:51:25;;;;;;;11.07;4.70;;;;;;;6.55;55.21;101727.50;10298039;28;20469;-75
2022/03/17 19:56:28;;;;;;;13.75;4.45;;;;;;;6.53;55.68;101734.47;10315904;28;20117;-75
2022/03/17 20:01:31;;;;;;;10.18;4.20;;;;;;;6.49;55.61;101743.19;10315299;28;20146;-75
2022/03/17 20:06:54;;;;;;;14.35;4.40;;;;;;;6.45;56.05;101744.94;10311158;28;20222;-76
2022/03/17 20:17:21;;;;;;;13.40;5.50;;;;;;;6.20;56.46;101754.81;10309279;28;20062;-75
2022/03/17 20:22:23;;;;;;;14.70;6.32;;;;;;;6.14;57.02;101762.66;10309646;28;20129;-75
2022/03/17 20:27:25;;;;;;;19.42;6.80;;;;;;;6.02;57.19;101775.78;10309126;28;20122;-75
2022/03/17 20:32:27;;;;;;;15.02;5.82;;;;;;;5.94;57.99;101785.41;10309144;28;20050;-75
2022/03/17 20:37:30;;;;;;;13.05;5.40;;;;;;;5.92;57.89;101789.75;10307390;28;20148;-75
2022/03/17 20:42:33;;;;;;;12.35;5.20;;;;;;;5.91;57.87;101795.84;10308120;28;20054;-75
2022/03/17 20:47:35;;;;;;;10.45;4.57;;;;;;;5.90;57.82;101808.88;10307446;28;20089;-75
2022/03/17 20:52:37;;;;;;;14.93;5.90;;;;;;;5.89;57.76;101807.13;10308709;28;20043;-75
2022/03/17 20:57:39;;;;;;;15.70;5.50;;;;;;;5.81;58.08;101820.19;10291626;28;20046;-75
2022/03/17 21:02:40;;;;;;;9.60;4.70;;;;;;;5.75;58.27;101829.78;10308291;28;20077;-75
2022/03/17 21:07:48;;;;;;;12.98;4.93;;;;;;;5.66;58.14;101830.72;10308628;28;20060;-75
2022/03/17 21:12:50;;;;;;;11.73;4.85;;;;;;;5.63;58.03;101845.47;10290237;28;20161;-75
2022/03/17 21:17:52;;;;;;;12.82;5.63;;;;;;;5.63;58.25;101853.25;10305989;28;20167;-74
2022/03/17 21:22:55;;;;;;;10.45;5.05;;;;;;;5.61;58.58;101853.28;10304499;28;20145;-75
2022/03/17 21:27:58;;;;;;;14.38;4.78;;;;;;;5.59;58.28;101855.03;10301304;28;20117;-75
2022/03/17 21:33:00;;;;;;;14.35;4.97;;;;;;;5.51;58.36;101868.06;10301640;28;20069;-75
2022/03/17 21:38:02;;;;;;;12.35;5.40;;;;;;;5.36;58.62;101856.94;10301855;28;20061;-75
2022/03/17 21:43:04;;;;;;;14.00;4.53;;;;;;;5.36;59.05;101875.09;10304128;28;20046;-75
2022/03/17 21:48:06;;;;;;;11.32;4.25;;;;;;;5.36;59.03;101878.56;10299461;28;20145;-75
2022/03/17 21:53:09;;;;;;;10.52;4.80;;;;;;;5.32;58.73;101883.78;10303649;28;20042;-75
2022/03/17 21:58:12;;;;;;;12.70;5.78;;;;;;;5.15;59.10;101883.03;10300442;28;20089;-75
2022/03/17 22:03:14;;;;;;;16.48;5.68;;;;;;;4.99;59.48;101892.66;10302461;28;20945;-75
2022/03/17 22:08:17;;;;;;;10.85;5.25;;;;;;;4.97;59.91;101896.97;10303841;28;20057;-75
2022/03/17 22:13:19;;;;;;;17.67;6.18;;;;;;;4.99;59.81;101899.56;10304717;28;20424;-75
2022/03/17 22:18:22;;;;;;;22.23;8.40;;;;;;;4.90;59.72;101902.22;10302300;28;20151;-75
2022/03/17 22:23:23;;;;;;;22.58;9.35;;;;;;;4.82;59.90;101901.41;10281152;28;20054;-75
2022/03/17 22:28:25;;;;;;;19.85;8.02;;;;;;;4.80;60.05;101905.72;10283601;28;20062;-75
2022/03/17 22:33:27;;;;;;;18.23;7.05;;;;;;;4.76;59.91;101909.19;10300370;28;20486;-75
2022/03/17 22:38:28;;;;;;;20.38;8.30;;;;;;;4.59;59.98;101912.72;10295845;28;20062;-74
2022/03/17 22:43:32;;;;;;;19.20;7.97;;;;;;;4.42;60.70;101913.63;10285476;28;20046;-75
2022/03/17 22:48:34;;;;;;;16.95;6.32;;;;;;;4.26;60.94;101923.19;10304093;28;21002;-75
2022/03/17 22:53:37;;;;;;;20.98;8.88;;;;;;;4.23;60.94;101923.19;10304033;28;20213;-75
2022/03/17 22:58:40;;;;;;;16.60;7.03;;;;;;;4.29;61.30;101933.53;10303129;28;20153;-74
2022/03/17 23:03:42;;;;;;;17.40;6.85;;;;;;;4.28;61.09;101926.63;10300385;28;20050;-75
2022/03/17 23:08:43;;;;;;;19.35;6.75;;;;;;;4.13;61.22;101931.84;10304330;28;20067;-75
2022/03/17 23:13:46;;;;;;;16.45;5.97;;;;;;;4.08;61.43;101927.53;10300075;28;20169;-75
2022/03/17 23:18:48;;;;;;;14.38;6.40;;;;;;;3.95;61.58;101920.63;10296793;28;20212;-75
2022/03/17 23:23:50;;;;;;;14.73;6.60;;;;;;;3.85;61.74;101920.66;10299516;28;20054;-74
2022/03/17 23:28:52;;;;;;;18.35;6.85;;;;;;;3.72;61.98;101923.25;10299478;28;20492;-74
2022/03/17 23:33:54;;;;;;;16.35;5.97;;;;;;;3.72;62.36;101931.00;10298724;28;20046;-74
2022/03/17 23:38:56;;;;;;;16.23;6.80;;;;;;;3.63;62.76;101933.56;10301035;28;20321;-74
2022/03/17 23:43:59;;;;;;;16.73;6.80;;;;;;;3.57;63.11;101941.34;10301575;28;20133;-74